Time;durP1;ratioP1;P1;durP2;ratioP2;P2;SDS_P1;SDS_P2;PMS_P1;PMS_P2;Temp;Humidity;BMP_temperature;BMP_pressure;BME280_temperature;BME280_humidity;BME280_pressure;Samples;Min_cycle;Max_cycle;Signal;HPM_P1;HPM_P2
2022/04/14 00:00:35;;;;;;;7.47;5.45;;;22.90;99.90;;;;;;5011274;28;20069;-52
2022/04/14 00:03:01;;;;;;;8.85;6.35;;;22.90;99.90;;;;;;5011902;28;20022;-53
2022/04/14 00:05:27;;;;;;;6.97;5.57;;;22.90;99.90;;;;;;5012135;28;20033;-52
2022/04/14 00:07:52;;;;;;;8.63;5.47;;;22.90;99.90;;;;;;5012000;28;20030;-52
2022/04/14 00:10:18;;;;;;;8.02;6.03;;;22.90;99.90;;;;;;5012091;28;20414;-53
2022/04/14 00:12:45;;;;;;;8.68;6.40;;;22.90;99.90;;;;;;5012039;28;20030;-53
2022/04/14 00:15:11;;;;;;;8.55;5.78;;;22.90;99.90;;;;;;5011861;28;20033;-52
2022/04/14 00:17:37;;;;;;;7.75;5.50;;;22.90;99.90;;;;;;5012057;28;20068;-52
2022/04/14 00:20:06;;;;;;;7.68;5.82;;;22.90;99.90;;;;;;5011965;28;20050;-52
2022/04/14 00:22:32;;;;;;;7.82;6.03;;;22.90;99.90;;;;;;5011815;28;20026;-52
2022/04/14 00:24:58;;;;;;;7.72;5.60;;;22.90;99.90;;;;;;5011810;28;20052;-53
2022/04/14 00:27:24;;;;;;;7.82;5.43;;;22.90;99.90;;;;;;5011739;28;20022;-51
2022/04/14 00:29:50;;;;;;;7.90;5.35;;;22.90;99.90;;;;;;5011758;28;20184;-51
2022/04/14 00:32:16;;;;;;;8.85;6.15;;;22.90;99.90;;;;;;5011325;28;20029;-51
2022/04/14 00:34:42;;;;;;;10.10;5.93;;;22.80;99.90;;;;;;5011617;28;20033;-52
2022/04/14 00:37:11;;;;;;;7.65;6.07;;;22.80;99.90;;;;;;5010614;28;20105;-51
2022/04/14 00:39:40;;;;;;;7.15;5.78;;;22.80;99.90;;;;;;5011527;28;20033;-52
2022/04/14 00:42:14;;;;;;;10.07;6.43;;;22.80;99.90;;;;;;5011496;28;20488;-51
2022/04/14 00:44:40;;;;;;;8.60;5.68;;;22.80;99.90;;;;;;5011525;28;20026;-49
2022/04/14 00:47:07;;;;;;;8.15;5.38;;;22.80;99.90;;;;;;5011342;28;20038;-49
2022/04/14 00:49:33;;;;;;;7.63;5.70;;;22.80;99.90;;;;;;5011495;28;20022;-50
2022/04/14 00:52:01;;;;;;;7.13;5.50;;;22.80;99.90;;;;;;5011523;28;20022;-50
2022/04/14 00:54:28;;;;;;;7.03;5.75;;;22.80;99.90;;;;;;5011465;28;20427;-50
2022/04/14 00:56:56;;;;;;;7.65;5.72;;;22.80;99.90;;;;;;5026515;28;20474;-50
2022/04/14 00:59:22;;;;;;;9.63;5.68;;;22.80;99.90;;;;;;5023139;23;20065;-62
2022/04/14 01:01:48;;;;;;;8.80;5.68;;;22.80;99.90;;;;;;5011422;28;20493;-60
2022/04/14 01:04:15;;;;;;;7.22;5.70;;;22.80;99.90;;;;;;5011338;28;20026;-60
2022/04/14 01:06:42;;;;;;;8.63;6.15;;;22.80;99.90;;;;;;5011365;28;20132;-60
2022/04/14 01:09:21;;;;;;;8.68;6.07;;;22.80;99.90;;;;;;5011402;28;20037;-60
2022/04/14 01:11:49;;;;;;;9.05;5.93;;;22.70;99.90;;;;;;5010366;28;20026;-60
2022/04/14 01:14:36;;;;;;;8.07;6.10;;;22.70;99.90;;;;;;5011392;28;20037;-59
2022/04/14 01:17:07;;;;;;;8.52;6.18;;;22.70;99.90;;;;;;5011273;28;20072;-60
2022/04/14 01:19:34;;;;;;;7.97;5.40;;;22.80;99.90;;;;;;5011333;28;20416;-59
2022/04/14 01:22:17;;;;;;;8.68;6.07;;;22.70;99.90;;;;;;5026724;28;20022;-60
2022/04/14 01:24:43;;;;;;;7.75;5.45;;;22.70;99.90;;;;;;5011260;28;20113;-60
2022/04/14 01:27:09;;;;;;;8.13;6.07;;;22.70;99.90;;;;;;5011045;28;20034;-60
2022/04/14 01:29:35;;;;;;;7.40;5.40;;;22.70;99.90;;;;;;5026681;28;20033;-60
2022/04/14 01:32:02;;;;;;;8.20;5.47;;;22.70;99.90;;;;;;5011088;28;20073;-60
2022/04/14 01:34:31;;;;;;;7.55;5.38;;;22.70;99.90;;;;;;5026387;28;20024;-62
2022/04/14 01:37:00;;;;;;;8.52;5.43;;;22.70;99.90;;;;;;5011185;28;20202;-60
2022/04/14 01:39:26;;;;;;;9.20;5.85;;;22.70;99.90;;;;;;5011086;28;20070;-60
2022/04/14 01:41:52;;;;;;;7.00;5.43;;;22.70;99.90;;;;;;5011604;28;20030;-60
2022/04/14 01:44:18;;;;;;;7.45;5.32;;;22.70;99.90;;;;;;5011592;28;20088;-60
2022/04/14 01:46:43;;;;;;;8.60;5.82;;;22.70;99.90;;;;;;5014551;28;20030;-61
2022/04/14 01:49:10;;;;;;;8.65;5.50;;;22.70;99.90;;;;;;5014916;28;20492;-61
2022/04/14 01:51:36;;;;;;;7.28;5.45;;;22.60;99.90;;;;;;5014746;28;20455;-61
2022/04/14 01:54:03;;;;;;;6.93;5.30;;;22.60;99.90;;;;;;5014708;28;20061;-61
2022/04/14 01:56:29;;;;;;;6.90;4.87;;;22.60;99.90;;;;;;5013301;28;20105;-61
2022/04/14 01:58:55;;;;;;;9.30;6.55;;;22.60;99.90;;;;;;5014543;28;20112;-61
2022/04/14 02:01:22;;;;;;;7.90;5.60;;;22.60;99.90;;;;;;5014940;28;20132;-61
2022/04/14 02:03:48;;;;;;;7.15;5.40;;;22.60;99.90;;;;;;5013196;28;20025;-61
2022/04/14 02:06:14;;;;;;;8.75;5.40;;;22.60;99.90;;;;;;5014199;28;20157;-61
2022/04/14 02:08:41;;;;;;;7.35;5.10;;;22.60;99.90;;;;;;5014377;28;20064;-61
2022/04/14 02:11:07;;;;;;;9.52;6.07;;;22.60;99.90;;;;;;5014287;28;20029;-60
2022/04/14 02:13:33;;;;;;;8.32;5.85;;;22.60;99.90;;;;;;5029412;28;20485;-63
2022/04/14 02:16:00;;;;;;;6.80;5.07;;;22.60;99.90;;;;;;5014239;28;20033;-61
2022/04/14 02:18:26;;;;;;;7.30;5.43;;;22.60;99.90;;;;;;5014107;28;20026;-61
2022/04/14 02:20:52;;;;;;;6.45;5.53;;;22.60;99.90;;;;;;5014115;28;20025;-60
2022/04/14 02:23:18;;;;;;;7.70;4.90;;;22.60;99.90;;;;;;5014067;28;20421;-62
2022/04/14 02:25:45;;;;;;;7.88;5.03;;;22.60;99.90;;;;;;5014113;28;20033;-62
2022/04/14 02:28:11;;;;;;;7.15;4.47;;;22.60;99.90;;;;;;5014109;28;20084;-60
2022/04/14 02:30:37;;;;;;;5.78;4.95;;;22.60;99.90;;;;;;5014328;28;20084;-60
2022/04/14 02:33:03;;;;;;;8.10;5.68;;;22.60;99.90;;;;;;5013887;28;20148;-60
2022/04/14 02:35:29;;;;;;;6.63;4.75;;;22.60;99.90;;;;;;5013641;28;20024;-61
2022/04/14 02:37:58;;;;;;;7.18;4.78;;;22.60;99.90;;;;;;5013839;28;20037;-61
2022/04/14 02:40:24;;;;;;;5.82;4.47;;;22.60;99.90;;;;;;5013535;28;20092;-61
2022/04/14 02:42:53;;;;;;;6.13;4.80;;;22.50;99.90;;;;;;5013667;28;20083;-60
2022/04/14 02:45:20;;;;;;;7.28;4.38;;;22.60;99.90;;;;;;5013472;28;20037;-60
2022/04/14 02:47:46;;;;;;;6.50;4.78;;;22.50;99.90;;;;;;5028656;28;20577;-61
2022/04/14 02:50:11;;;;;;;6.72;5.15;;;22.60;99.90;;;;;;5013688;28;20037;-60
2022/04/14 02:52:37;;;;;;;6.80;4.53;;;22.50;99.90;;;;;;5013603;28;20030;-61
2022/04/14 02:55:04;;;;;;;6.90;5.10;;;22.50;99.90;;;;;;5013064;28;20491;-60
2022/04/14 02:57:30;;;;;;;7.03;5.05;;;22.50;99.90;;;;;;5013314;28;20025;-60
2022/04/14 02:59:57;;;;;;;5.78;4.32;;;22.50;99.90;;;;;;5013753;28;20068;-60
2022/04/14 03:02:23;;;;;;;7.35;4.53;;;22.50;99.90;;;;;;5013297;28;20037;-60
2022/04/14 03:04:49;;;;;;;6.23;4.37;;;22.50;99.90;;;;;;5013299;28;20026;-60
2022/04/14 03:07:15;;;;;;;7.35;5.00;;;22.50;99.90;;;;;;5013278;28;20370;-60
2022/04/14 03:09:41;;;;;;;7.30;4.95;;;22.50;99.90;;;;;;5013501;28;20026;-61
2022/04/14 03:12:07;;;;;;;7.55;4.85;;;22.50;99.90;;;;;;5013055;28;20032;-61
2022/04/14 03:14:33;;;;;;;7.50;4.65;;;22.50;99.90;;;;;;5013057;28;20030;-59
2022/04/14 03:16:59;;;;;;;6.40;4.60;;;22.50;99.90;;;;;;5012917;28;20087;-61
2022/04/14 03:19:27;;;;;;;8.10;4.68;;;22.50;99.90;;;;;;5013021;28;20097;-62
2022/04/14 03:21:53;;;;;;;6.63;4.70;;;22.50;99.90;;;;;;5012983;28;20025;-60
2022/04/14 03:24:19;;;;;;;7.03;5.00;;;22.50;99.90;;;;;;5012747;28;20048;-61
2022/04/14 03:26:44;;;;;;;7.07;4.78;;;22.50;99.90;;;;;;5013035;28;20114;-62
2022/04/14 03:29:10;;;;;;;7.82;4.82;;;22.50;99.90;;;;;;5013056;28;20481;-61
2022/04/14 03:31:36;;;;;;;7.93;4.05;;;22.50;99.90;;;;;;5012596;28;20022;-61
2022/04/14 03:34:02;;;;;;;5.82;3.40;;;22.50;99.90;;;;;;5003212;28;20091;-62
2022/04/14 03:36:28;;;;;;;6.20;4.38;;;22.50;99.90;;;;;;5003762;28;20470;-61
2022/04/14 03:38:54;;;;;;;7.13;4.57;;;22.50;99.90;;;;;;5010128;28;20037;-61
2022/04/14 03:41:19;;;;;;;5.10;3.70;;;22.50;99.90;;;;;;5010742;28;20034;-61
2022/04/14 03:43:45;;;;;;;6.05;3.65;;;22.50;99.90;;;;;;5010932;28;20026;-61
2022/04/14 03:46:14;;;;;;;5.35;3.70;;;22.50;99.90;;;;;;5010719;28;20112;-61
2022/04/14 03:48:42;;;;;;;10.02;4.43;;;22.50;99.90;;;;;;5010381;28;20390;-62
2022/04/14 03:51:09;;;;;;;8.02;4.60;;;22.50;99.90;;;;;;5010401;28;20044;-61
2022/04/14 03:53:35;;;;;;;5.45;3.30;;;22.50;99.90;;;;;;5010514;28;20030;-62
2022/04/14 03:56:01;;;;;;;5.47;3.65;;;22.50;99.90;;;;;;5011263;28;20048;-61
2022/04/14 03:58:26;;;;;;;6.05;3.65;;;22.50;99.90;;;;;;5010275;28;20541;-60
2022/04/14 04:00:52;;;;;;;4.53;3.47;;;22.50;99.90;;;;;;5035230;23;20068;-52
2022/04/14 04:03:18;;;;;;;6.85;3.58;;;22.50;99.90;;;;;;5029869;28;20053;-52
2022/04/14 04:05:44;;;;;;;5.28;3.08;;;22.50;99.90;;;;;;5030000;28;20025;-51
2022/04/14 04:08:09;;;;;;;5.45;3.17;;;22.50;99.90;;;;;;5028971;28;20033;-51
2022/04/14 04:10:36;;;;;;;6.05;3.25;;;22.50;99.90;;;;;;5028677;28;20445;-51
2022/04/14 04:13:01;;;;;;;6.00;3.10;;;22.50;99.90;;;;;;5030149;28;20529;-51
2022/04/14 04:15:27;;;;;;;3.95;2.53;;;22.50;99.90;;;;;;5030668;28;20061;-51
2022/04/14 04:17:53;;;;;;;4.75;3.25;;;22.50;99.90;;;;;;5031573;28;20036;-50
2022/04/14 04:20:20;;;;;;;5.40;3.20;;;22.40;99.90;;;;;;5031613;28;20033;-50
2022/04/14 04:22:46;;;;;;;3.90;2.80;;;22.40;99.90;;;;;;5031831;28;20036;-51
2022/04/14 04:25:12;;;;;;;4.75;2.72;;;22.40;99.90;;;;;;5031444;28;20041;-51
2022/04/14 04:27:38;;;;;;;3.50;2.70;;;22.50;99.90;;;;;;5031412;28;20037;-51
2022/04/14 04:30:06;;;;;;;4.68;3.03;;;22.40;99.90;;;;;;5031564;28;20025;-51
2022/04/14 04:32:33;;;;;;;3.20;2.42;;;22.40;99.90;;;;;;5031481;28;20025;-51
2022/04/14 04:35:03;;;;;;;3.33;2.25;;;22.40;99.90;;;;;;5031366;28;20025;-51
2022/04/14 04:37:29;;;;;;;6.03;2.42;;;22.40;99.90;;;;;;5031288;28;20496;-51
2022/04/14 04:39:56;;;;;;;3.20;2.40;;;22.40;99.90;;;;;;5031385;28;20033;-50
2022/04/14 04:42:22;;;;;;;2.28;1.88;;;22.40;99.90;;;;;;5031271;28;20022;-50
2022/04/14 04:44:48;;;;;;;6.35;3.33;;;22.40;99.90;;;;;;5031605;28;20041;-50
2022/04/14 04:47:14;;;;;;;4.15;2.40;;;22.40;99.90;;;;;;5031347;28;20038;-50
2022/04/14 04:49:40;;;;;;;4.97;2.55;;;22.40;99.90;;;;;;5031271;28;20034;-49
2022/04/14 04:52:06;;;;;;;4.55;2.63;;;22.40;99.90;;;;;;5031163;28;20059;-50
2022/04/14 04:54:32;;;;;;;5.13;2.67;;;22.40;99.90;;;;;;5031193;28;20025;-50
2022/04/14 04:56:57;;;;;;;4.28;2.65;;;22.40;99.90;;;;;;5031104;28;20026;-50
2022/04/14 04:59:23;;;;;;;4.35;2.45;;;22.40;99.90;;;;;;5029766;28;20030;-50
2022/04/14 05:01:49;;;;;;;3.47;2.72;;;22.40;99.90;;;;;;5031266;28;20049;-50
2022/04/14 05:04:15;;;;;;;6.35;2.80;;;22.40;99.90;;;;;;5031344;28;20033;-50
2022/04/14 05:06:41;;;;;;;3.60;2.47;;;22.40;99.90;;;;;;5031195;28;20044;-50
2022/04/14 05:09:06;;;;;;;4.57;2.63;;;22.40;99.90;;;;;;5030931;28;20112;-50
2022/04/14 05:11:34;;;;;;;4.18;2.50;;;22.40;99.90;;;;;;5031082;28;20032;-49
2022/04/14 05:14:00;;;;;;;3.35;2.20;;;22.40;99.90;;;;;;5031090;28;20030;-49
2022/04/14 05:16:26;;;;;;;3.55;2.35;;;22.40;99.90;;;;;;5031061;28;20026;-50
2022/04/14 05:18:52;;;;;;;3.80;2.83;;;22.40;99.90;;;;;;5031034;28;20052;-50
2022/04/14 05:21:17;;;;;;;3.67;2.40;;;22.40;99.90;;;;;;5035191;28;20037;-50
2022/04/14 05:23:43;;;;;;;4.13;2.70;;;22.30;99.90;;;;;;5034835;28;20022;-49
2022/04/14 05:26:09;;;;;;;4.28;2.80;;;22.30;99.90;;;;;;5034848;28;20045;-50
2022/04/14 05:28:35;;;;;;;5.88;2.65;;;22.40;99.90;;;;;;5034605;28;20060;-51
2022/04/14 05:31:01;;;;;;;4.25;2.70;;;22.30;99.90;;;;;;5034722;28;20105;-50
2022/04/14 05:33:27;;;;;;;3.78;2.90;;;22.30;99.90;;;;;;5034604;28;20087;-50
2022/04/14 05:35:53;;;;;;;3.50;2.47;;;22.30;99.90;;;;;;5034657;28;20029;-50
2022/04/14 05:38:19;;;;;;;4.03;2.58;;;22.30;99.90;;;;;;5034804;28;20357;-50
2022/04/14 05:40:45;;;;;;;5.15;3.08;;;22.30;99.90;;;;;;5034524;28;20016;-50
2022/04/14 05:43:25;;;;;;;5.40;2.97;;;22.30;99.90;;;;;;5016846;28;20053;-50
2022/04/14 05:45:51;;;;;;;4.70;2.75;;;22.30;99.90;;;;;;5034742;28;20303;-50
2022/04/14 05:48:18;;;;;;;4.22;2.95;;;22.30;99.90;;;;;;5034361;28;20120;-50
2022/04/14 05:50:45;;;;;;;3.65;2.90;;;22.30;99.90;;;;;;5033056;28;20026;-50
2022/04/14 05:53:12;;;;;;;4.40;2.72;;;22.30;99.90;;;;;;5034345;28;20039;-50
2022/04/14 05:55:39;;;;;;;3.80;2.70;;;22.30;99.90;;;;;;5034327;28;20017;-50
2022/04/14 05:58:06;;;;;;;3.63;2.80;;;22.30;99.90;;;;;;5032885;28;20030;-49
2022/04/14 06:00:33;;;;;;;4.32;2.92;;;22.30;99.90;;;;;;5034226;28;20045;-50
2022/04/14 06:02:59;;;;;;;4.50;3.10;;;22.30;99.90;;;;;;5034171;28;20218;-50
2022/04/14 06:05:29;;;;;;;4.17;2.80;;;22.30;99.90;;;;;;5034037;28;20101;-50
2022/04/14 06:07:56;;;;;;;4.65;2.67;;;22.30;99.90;;;;;;5034013;28;20766;-50
2022/04/14 06:10:25;;;;;;;4.50;2.83;;;22.30;99.90;;;;;;5034142;28;20056;-50
2022/04/14 06:12:51;;;;;;;5.10;2.58;;;22.30;99.90;;;;;;5034150;28;20022;-50
2022/04/14 06:15:18;;;;;;;4.80;2.58;;;22.30;99.90;;;;;;5034139;28;20362;-50
2022/04/14 06:17:44;;;;;;;4.22;2.80;;;22.30;99.90;;;;;;5032638;28;20497;-50
2022/04/14 06:20:11;;;;;;;3.67;2.58;;;22.30;99.90;;;;;;5033864;28;20026;-50
2022/04/14 06:22:39;;;;;;;3.70;2.70;;;22.30;99.90;;;;;;5033717;28;20025;-50
2022/04/14 06:25:06;;;;;;;3.22;2.20;;;22.30;99.90;;;;;;5033727;28;20120;-49
2022/04/14 06:27:32;;;;;;;3.80;2.80;;;22.30;99.90;;;;;;5033580;28;20144;-50
2022/04/14 06:29:58;;;;;;;3.67;2.10;;;22.30;99.90;;;;;;5033025;28;20036;-49
2022/04/14 06:32:24;;;;;;;3.42;2.45;;;22.30;99.90;;;;;;5033782;28;20025;-50
2022/04/14 06:34:50;;;;;;;2.90;2.17;;;22.30;99.90;;;;;;5033649;28;20022;-49
2022/04/14 06:37:15;;;;;;;3.65;2.33;;;22.30;99.90;;;;;;5033618;28;20035;-50
2022/04/14 06:39:41;;;;;;;3.22;2.60;;;22.30;99.90;;;;;;5033407;28;20040;-50
2022/04/14 06:42:07;;;;;;;3.25;2.40;;;22.30;99.90;;;;;;5033466;28;20056;-50
2022/04/14 06:44:33;;;;;;;2.90;2.33;;;22.30;99.90;;;;;;5033363;28;20055;-50
2022/04/14 06:46:59;;;;;;;2.85;2.17;;;22.30;99.90;;;;;;5031941;28;20031;-50
2022/04/14 06:49:25;;;;;;;2.53;2.03;;;22.30;99.90;;;;;;5033513;28;20025;-50
2022/04/14 06:51:50;;;;;;;2.55;2.03;;;22.30;99.90;;;;;;5033488;28;20021;-50
2022/04/14 06:54:17;;;;;;;4.03;2.63;;;22.30;99.90;;;;;;5033338;28;20060;-50
2022/04/14 06:56:42;;;;;;;3.15;2.50;;;22.30;99.90;;;;;;5031999;28;20366;-50
2022/04/14 06:59:08;;;;;;;2.75;2.33;;;22.30;99.90;;;;;;5031747;28;20040;-50
2022/04/14 07:01:34;;;;;;;2.40;2.13;;;22.30;99.90;;;;;;5032809;28;20042;-50
2022/04/14 07:04:00;;;;;;;2.00;1.80;;;22.30;99.90;;;;;;5032985;28;20024;-50
2022/04/14 07:06:25;;;;;;;5.13;2.60;;;22.30;99.90;;;;;;5033033;28;20024;-50
2022/04/14 07:08:51;;;;;;;3.30;2.40;;;22.30;99.90;;;;;;5032935;28;20176;-51
2022/04/14 07:11:17;;;;;;;3.00;2.38;;;22.30;99.90;;;;;;5032741;28;20083;-51
2022/04/14 07:13:43;;;;;;;3.00;2.28;;;22.30;99.90;;;;;;5032844;28;20033;-51
2022/04/14 07:16:09;;;;;;;2.80;1.80;;;22.30;99.90;;;;;;5032796;28;20481;-51
2022/04/14 07:18:34;;;;;;;2.35;2.03;;;22.30;99.90;;;;;;5032857;28;20100;-51
2022/04/14 07:21:00;;;;;;;3.85;2.10;;;22.30;99.90;;;;;;5032755;28;20021;-51
2022/04/14 07:23:27;;;;;;;2.25;1.73;;;22.30;99.90;;;;;;5032814;28;20096;-51
2022/04/14 07:25:53;;;;;;;2.97;2.10;;;22.30;99.90;;;;;;5032953;28;20026;-51
2022/04/14 07:28:19;;;;;;;2.70;2.10;;;22.30;99.90;;;;;;5032599;28;20371;-52
2022/04/14 07:30:45;;;;;;;4.47;2.40;;;22.30;99.90;;;;;;5032464;28;20061;-51
2022/04/14 07:33:11;;;;;;;2.55;1.85;;;22.30;99.90;;;;;;5032434;28;20100;-51
2022/04/14 07:35:37;;;;;;;3.00;1.95;;;22.40;99.90;;;;;;5032353;28;20536;-51
2022/04/14 07:38:02;;;;;;;3.20;2.30;;;22.40;99.90;;;;;;5032291;28;20099;-51
2022/04/14 07:40:28;;;;;;;2.92;2.10;;;22.40;99.90;;;;;;5032340;28;20477;-51
2022/04/14 07:42:55;;;;;;;3.55;2.03;;;22.40;99.90;;;;;;5032175;28;20041;-51
2022/04/14 07:45:21;;;;;;;4.28;2.25;;;22.40;99.90;;;;;;5031008;28;20021;-51
2022/04/14 07:47:47;;;;;;;2.55;2.33;;;22.40;99.90;;;;;;5032189;28;20037;-51
2022/04/14 07:50:19;;;;;;;3.10;1.75;;;22.40;99.90;;;;;;5032068;28;20049;-51
2022/04/14 07:52:54;;;;;;;2.55;1.92;;;22.40;99.90;;;;;;5032200;28;20029;-51
2022/04/14 07:55:28;;;;;;;2.63;1.98;;;22.40;99.90;;;;;;5032172;28;20041;-51
2022/04/14 07:57:56;;;;;;;3.88;2.65;;;22.40;99.90;;;;;;5032187;28;20029;-51
2022/04/14 08:00:23;;;;;;;3.33;2.30;;;22.40;99.90;;;;;;5030627;28;20052;-51
2022/04/14 08:02:59;;;;;;;2.22;1.92;;;22.40;99.90;;;;;;5032008;28;20032;-51
2022/04/14 08:05:31;;;;;;;2.40;1.90;;;22.40;99.90;;;;;;5030823;28;20021;-51
2022/04/14 08:07:57;;;;;;;3.33;2.35;;;22.40;99.90;;;;;;5031840;28;20045;-51
2022/04/14 08:10:24;;;;;;;2.90;2.20;;;22.40;99.90;;;;;;5031614;28;20028;-50
2022/04/14 08:12:50;;;;;;;2.50;2.10;;;22.40;99.90;;;;;;5031808;28;20033;-50
2022/04/14 08:15:16;;;;;;;3.70;2.40;;;22.40;99.90;;;;;;5031660;28;20335;-51
2022/04/14 08:17:43;;;;;;;3.03;2.20;;;22.40;99.90;;;;;;5031615;28;20029;-51
2022/04/14 08:20:10;;;;;;;5.97;2.55;;;22.50;99.90;;;;;;5031642;28;20030;-51
2022/04/14 08:22:47;;;;;;;3.08;2.10;;;22.50;99.90;;;;;;5031615;28;20104;-51
2022/04/14 08:25:22;;;;;;;2.80;2.40;;;22.50;99.90;;;;;;5031564;28;20029;-51
2022/04/14 08:27:49;;;;;;;3.03;2.42;;;22.50;99.90;;;;;;5031455;28;20498;-51
2022/04/14 08:30:17;;;;;;;2.83;2.28;;;22.50;99.90;;;;;;5031345;28;20049;-50
2022/04/14 08:32:43;;;;;;;6.97;3.40;;;22.50;99.90;;;;;;5031292;28;20036;-51
2022/04/14 08:35:11;;;;;;;3.30;2.63;;;22.50;99.90;;;;;;5031289;28;20393;-51
2022/04/14 08:37:37;;;;;;;2.17;1.98;;;22.50;99.90;;;;;;5031239;28;20121;-51
2022/04/14 08:40:06;;;;;;;4.32;2.08;;;22.50;99.90;;;;;;5031202;28;20033;-51
2022/04/14 08:42:39;;;;;;;3.00;2.38;;;22.50;99.90;;;;;;5031354;28;20025;-52
2022/04/14 08:45:07;;;;;;;3.42;2.25;;;22.60;99.90;;;;;;5031220;28;20390;-51
2022/04/14 08:47:36;;;;;;;3.13;2.63;;;22.50;99.90;;;;;;5031075;28;20045;-52
2022/04/14 08:50:03;;;;;;;2.97;2.22;;;22.60;99.90;;;;;;5030011;28;20025;-51
2022/04/14 08:52:28;;;;;;;3.03;2.30;;;22.60;99.90;;;;;;5031679;28;20036;-51
2022/04/14 08:54:55;;;;;;;3.08;2.35;;;22.60;99.90;;;;;;5035923;28;20754;-52
2022/04/14 08:57:22;;;;;;;2.72;2.15;;;22.60;99.90;;;;;;5037865;28;20045;-50
2022/04/14 08:59:50;;;;;;;3.03;2.42;;;22.60;99.90;;;;;;5036341;28;20080;-51
2022/04/14 09:02:21;;;;;;;4.07;2.60;;;22.60;99.90;;;;;;5037747;28;20029;-51
2022/04/14 09:04:49;;;;;;;4.57;2.90;;;22.60;99.90;;;;;;5037588;28;20024;-51
2022/04/14 09:07:16;;;;;;;4.07;2.97;;;22.60;99.90;;;;;;5037589;28;20566;-51
2022/04/14 09:09:43;;;;;;;3.55;2.60;;;22.60;99.90;;;;;;5037595;28;20041;-52
2022/04/14 09:12:10;;;;;;;3.72;2.50;;;22.60;99.90;;;;;;5037761;28;20056;-51
2022/04/14 09:14:37;;;;;;;3.60;2.50;;;22.60;99.90;;;;;;5037518;28;20079;-52
2022/04/14 09:17:07;;;;;;;4.35;2.83;;;22.60;99.90;;;;;;5037594;28;20032;-52
2022/04/14 09:19:34;;;;;;;4.20;3.00;;;22.60;99.90;;;;;;5037418;28;20040;-52
2022/04/14 09:22:10;;;;;;;4.72;2.80;;;22.70;99.90;;;;;;5037802;28;20017;-52
2022/04/14 09:24:42;;;;;;;5.72;2.72;;;22.70;99.90;;;;;;5037572;28;20034;-51
2022/04/14 09:27:09;;;;;;;3.80;2.60;;;22.70;99.90;;;;;;5037310;28;20029;-51
2022/04/14 09:29:35;;;;;;;4.15;2.90;;;22.70;99.90;;;;;;5037537;28;20136;-51
2022/04/14 09:32:01;;;;;;;4.88;2.53;;;22.70;99.90;;;;;;5037761;28;20436;-51
2022/04/14 09:34:51;;;;;;;5.57;3.35;;;22.70;99.90;;;;;;5037358;28;20025;-51
2022/04/14 09:37:18;;;;;;;2.78;2.17;;;22.70;99.90;;;;;;5037436;28;20051;-51
2022/04/14 09:40:01;;;;;;;7.18;2.80;;;22.70;99.90;;;;;;5037262;28;20029;-51
2022/04/14 09:42:32;;;;;;;3.72;2.72;;;22.70;99.90;;;;;;5037420;28;20041;-51
2022/04/14 09:45:25;;;;;;;3.70;2.90;;;22.70;99.90;;;;;;5037374;28;20018;-52
2022/04/14 09:47:52;;;;;;;4.38;2.97;;;22.80;99.90;;;;;;5037258;28;20029;-50
2022/04/14 09:50:27;;;;;;;4.07;2.70;;;22.80;99.90;;;;;;5037352;28;20096;-51
2022/04/14 09:52:57;;;;;;;3.88;2.38;;;22.80;99.90;;;;;;5037188;28;20420;-51
2022/04/14 09:55:23;;;;;;;5.53;2.58;;;22.80;99.90;;;;;;5037218;28;20056;-50
2022/04/14 09:58:15;;;;;;;6.10;2.88;;;22.90;99.90;;;;;;5037087;28;20489;-51
2022/04/14 10:00:52;;;;;;;4.72;3.15;;;22.90;99.90;;;;;;5037290;28;20050;-51
2022/04/14 10:03:23;;;;;;;3.88;2.92;;;23.00;99.90;;;;;;5035891;28;20031;-52
2022/04/14 10:05:51;;;;;;;3.55;2.85;;;23.00;99.90;;;;;;5033693;28;20029;-50
2022/04/14 10:08:17;;;;;;;5.20;2.80;;;23.00;99.90;;;;;;5033836;28;20048;-50
2022/04/14 10:10:45;;;;;;;7.80;2.83;;;23.00;99.90;;;;;;5032664;28;20026;-51
2022/04/14 10:13:13;;;;;;;6.85;3.13;;;23.00;99.90;;;;;;5033955;28;20025;-50
2022/04/14 10:15:40;;;;;;;3.25;2.35;;;23.10;99.90;;;;;;5033981;28;20048;-51
2022/04/14 10:18:14;;;;;;;4.28;3.13;;;23.10;99.90;;;;;;5033914;28;20032;-51
2022/04/14 10:20:43;;;;;;;5.40;2.95;;;23.10;99.90;;;;;;5033931;28;20435;-51
2022/04/14 10:23:11;;;;;;;6.25;3.10;;;23.20;99.90;;;;;;5033619;28;20022;-50
2022/04/14 10:25:38;;;;;;;3.97;3.08;;;23.20;99.90;;;;;;5033690;28;20044;-51
2022/04/14 10:28:11;;;;;;;6.90;3.45;;;23.20;99.90;;;;;;5033671;28;20030;-50
2022/04/14 10:30:37;;;;;;;5.70;3.22;;;23.30;99.90;;;;;;5033650;28;20026;-51
2022/04/14 10:33:03;;;;;;;6.93;3.67;;;23.30;99.90;;;;;;5033785;28;20030;-52
2022/04/14 10:35:30;;;;;;;6.95;3.58;;;23.30;99.90;;;;;;5033318;28;20056;-51
2022/04/14 10:38:17;;;;;;;8.02;3.33;;;23.30;99.90;;;;;;5030689;28;20026;-51
2022/04/14 10:40:49;;;;;;;7.80;3.13;;;23.40;99.90;;;;;;5025749;28;20484;-51
2022/04/14 10:43:20;;;;;;;9.07;3.72;;;23.40;99.90;;;;;;5013514;28;20128;-51
2022/04/14 10:45:54;;;;;;;5.10;2.85;;;23.40;99.90;;;;;;5023136;28;20026;-51
2022/04/14 10:48:35;;;;;;;7.50;3.60;;;23.50;99.90;;;;;;5024651;28;20088;-52
2022/04/14 10:51:29;;;;;;;7.18;3.47;;;23.50;99.90;;;;;;5025892;28;20017;-52
2022/04/14 10:54:02;;;;;;;7.07;3.88;;;23.50;99.90;;;;;;5023707;28;20432;-52
2022/04/14 10:56:34;;;;;;;12.57;4.32;;;23.50;99.90;;;;;;5023799;28;20032;-52
2022/04/14 10:59:21;;;;;;;7.03;3.50;;;23.60;99.90;;;;;;5033100;28;20064;-52
2022/04/14 11:04:35;;;;;;;6.65;4.13;;;23.60;99.90;;;;;;5013017;28;19956;-52
2022/04/14 11:07:10;;;;;;;9.88;4.22;;;23.70;99.90;;;;;;5024991;28;20044;-50
2022/04/14 11:09:50;;;;;;;9.00;4.32;;;23.70;99.90;;;;;;5025028;28;20358;-51
2022/04/14 11:12:29;;;;;;;12.63;5.00;;;23.70;99.90;;;;;;5021975;28;20018;-50
2022/04/14 11:15:03;;;;;;;11.65;5.30;;;23.80;99.90;;;;;;5021719;28;20022;-51
2022/04/14 11:17:36;;;;;;;6.30;3.92;;;23.80;99.90;;;;;;5020963;28;20026;-50
2022/04/14 11:20:24;;;;;;;11.73;3.97;;;23.80;99.90;;;;;;5022102;28;20022;-49
2022/04/14 11:23:09;;;;;;;10.40;4.82;;;23.80;99.90;;;;;;5022280;28;20354;-50
2022/04/14 11:28:28;;;;;;;9.48;5.18;;;23.90;99.90;;;;;;5023811;28;20051;-49
2022/04/14 11:31:04;;;;;;;8.82;4.93;;;24.00;99.90;;;;;;5029245;28;20025;-50
2022/04/14 11:33:30;;;;;;;7.82;3.78;;;24.00;99.90;;;;;;5030301;28;20083;-52
2022/04/14 11:36:09;;;;;;;10.07;4.75;;;24.00;99.90;;;;;;5026047;28;20033;-52
2022/04/14 11:38:55;;;;;;;12.18;5.40;;;24.00;99.90;;;;;;5027383;28;20030;-51
2022/04/14 11:41:44;;;;;;;10.02;4.93;;;24.00;99.90;;;;;;5028358;28;20397;-51
2022/04/14 11:44:30;;;;;;;9.50;4.75;;;24.10;99.90;;;;;;5027960;28;20028;-48
2022/04/14 11:47:01;;;;;;;7.28;4.53;;;24.10;99.90;;;;;;5027922;28;20099;-49
2022/04/14 11:49:29;;;;;;;10.38;5.63;;;24.10;99.90;;;;;;5029339;28;20362;-51
2022/04/14 11:52:00;;;;;;;8.77;5.90;;;24.10;99.90;;;;;;5026165;28;20045;-51
2022/04/14 11:54:31;;;;;;;8.05;4.68;;;24.10;99.90;;;;;;5028649;28;20029;-51
2022/04/14 11:57:06;;;;;;;7.20;5.10;;;24.20;99.90;;;;;;5029119;28;20428;-52
2022/04/14 11:59:33;;;;;;;9.02;5.53;;;24.20;99.90;;;;;;5028376;28;20028;-50
2022/04/14 12:02:02;;;;;;;13.60;5.83;;;24.20;99.90;;;;;;5026101;28;20116;-51
2022/04/14 12:04:32;;;;;;;7.60;4.78;;;24.20;99.90;;;;;;5029282;28;20263;-50
2022/04/14 12:06:58;;;;;;;17.35;6.55;;;24.20;99.90;;;;;;5027200;28;20492;-51
2022/04/14 12:09:24;;;;;;;8.13;5.13;;;24.30;99.90;;;;;;5024359;28;20479;-50
2022/04/14 12:11:52;;;;;;;7.53;5.10;;;24.30;99.90;;;;;;5022422;28;20042;-50
2022/04/14 12:14:19;;;;;;;9.63;4.93;;;24.30;99.90;;;;;;5031581;28;20021;-50
2022/04/14 12:16:49;;;;;;;7.40;4.97;;;24.30;99.90;;;;;;5040830;28;20497;-50
2022/04/14 12:19:15;;;;;;;6.70;4.80;;;24.30;99.90;;;;;;5034292;28;20021;-50
2022/04/14 12:21:41;;;;;;;8.05;5.47;;;24.30;99.90;;;;;;5030884;28;20431;-50
2022/04/14 12:24:06;;;;;;;7.57;5.38;;;24.30;99.90;;;;;;5038517;28;20558;-49
2022/04/14 12:26:37;;;;;;;9.30;4.85;;;24.30;99.90;;;;;;5037059;28;20167;-51
2022/04/14 12:29:08;;;;;;;9.18;5.22;;;24.30;99.90;;;;;;5023028;28;20099;-51
2022/04/14 12:31:34;;;;;;;10.38;5.13;;;24.30;99.90;;;;;;5037830;28;20025;-49
2022/04/14 12:34:00;;;;;;;10.18;6.30;;;24.40;99.90;;;;;;5042616;28;20472;-49
2022/04/14 12:36:37;;;;;;;9.67;5.50;;;24.40;99.90;;;;;;5041616;28;20036;-51
2022/04/14 12:39:05;;;;;;;8.85;5.10;;;24.40;99.90;;;;;;5039075;28;20384;-50
2022/04/14 12:41:38;;;;;;;9.75;5.55;;;24.40;99.90;;;;;;5045107;28;20103;-48
2022/04/14 12:44:05;;;;;;;10.23;6.60;;;24.40;99.90;;;;;;5044449;28;20027;-48
2022/04/14 12:46:38;;;;;;;9.32;5.80;;;24.40;99.90;;;;;;5045938;28;20021;-49
2022/04/14 12:49:06;;;;;;;7.88;5.18;;;24.40;99.90;;;;;;5044997;28;20048;-50
2022/04/14 12:51:38;;;;;;;10.50;6.05;;;24.50;99.90;;;;;;5036534;28;20037;-51
2022/04/14 12:54:05;;;;;;;13.77;6.03;;;24.50;99.90;;;;;;5033633;28;20032;-49
2022/04/14 12:56:33;;;;;;;9.57;5.70;;;24.50;99.90;;;;;;5032026;28;20026;-50